createdAt,value
2023-03-19T00:00:27.567Z,22.88
2023-03-19T00:02:57.888Z,22.89
2023-03-19T00:05:27.991Z,22.88
2023-03-19T00:08:15.520Z,22.88
2023-03-19T00:14:19.574Z,22.87
2023-03-19T00:17:25.638Z,22.87
2023-03-19T00:20:26.695Z,22.85
2023-03-19T00:23:18.201Z,22.85
2023-03-19T00:26:30.082Z,22.82
2023-03-19T00:29:14.782Z,22.82
2023-03-19T00:32:55.399Z,22.78
2023-03-19T00:34:30.034Z,22.75
2023-03-19T00:37:00.391Z,22.78
2023-03-19T00:39:30.343Z,22.75
2023-03-19T00:42:03.336Z,22.74
2023-03-19T00:48:19.266Z,22.72
2023-03-19T00:50:49.680Z,22.71
2023-03-19T00:53:32.721Z,22.68
2023-03-19T00:56:27.539Z,22.67
2023-03-19T00:59:30.935Z,22.67
2023-03-19T01:02:14.599Z,22.65
2023-03-19T01:04:43.954Z,22.64
2023-03-19T01:07:15.835Z,22.61
2023-03-19T01:13:33.163Z,22.60
2023-03-19T01:16:03.071Z,22.58
2023-03-19T01:18:32.921Z,22.54
2023-03-19T01:21:13.704Z,22.56
2023-03-19T01:23:57.825Z,22.55
2023-03-19T01:26:35.497Z,22.53
2023-03-19T01:32:30.012Z,22.51
2023-03-19T01:35:12.177Z,22.48
2023-03-19T01:37:42.048Z,22.47
2023-03-19T01:40:14.360Z,22.48
2023-03-19T01:42:57.870Z,22.48
2023-03-19T01:45:35.637Z,22.46
2023-03-19T01:48:07.038Z,22.43
2023-03-19T01:51:02.567Z,22.42
2023-03-19T01:57:06.630Z,22.41
2023-03-19T01:59:38.635Z,22.40
2023-03-19T02:02:31.971Z,22.40
2023-03-19T02:05:17.984Z,22.39
2023-03-19T02:07:48.269Z,22.38
2023-03-19T02:10:18.627Z,22.36
2023-03-19T02:12:49.335Z,22.33
2023-03-19T02:15:19.356Z,22.31
2023-03-19T02:17:49.289Z,22.32
2023-03-19T02:20:30.896Z,22.31
2023-03-19T02:23:22.871Z,22.30
2023-03-19T02:25:58.320Z,22.28
2023-03-19T02:28:28.458Z,22.26
2023-03-19T02:31:28.656Z,22.25
2023-03-19T02:34:03.580Z,22.23
2023-03-19T02:36:35.853Z,22.23
2023-03-19T02:39:07.989Z,22.23
2023-03-19T02:44:30.266Z,22.24
2023-03-19T02:47:00.346Z,22.17
2023-03-19T02:49:30.586Z,22.15
2023-03-19T02:52:00.666Z,22.12
2023-03-19T02:54:30.866Z,22.12
2023-03-19T02:57:19.206Z,22.12
2023-03-19T02:59:52.418Z,22.09
2023-03-19T03:02:50.943Z,22.07
2023-03-19T03:06:10.110Z,22.05
2023-03-19T03:10:55.897Z,22.02
2023-03-19T03:13:25.905Z,22.01
2023-03-19T03:15:56.458Z,22.00
2023-03-19T03:18:26.718Z,21.98
2023-03-19T03:20:56.534Z,21.97
2023-03-19T03:26:56.590Z,21.92
2023-03-19T03:29:47.625Z,21.91
2023-03-19T03:35:41.173Z,21.88
2023-03-19T03:40:59.580Z,21.82
2023-03-19T03:43:30.039Z,21.82
2023-03-19T03:46:00.476Z,21.79
2023-03-19T03:48:30.454Z,21.78
2023-03-19T03:51:00.370Z,21.76
2023-03-19T03:54:18.343Z,21.76
2023-03-19T03:56:55.480Z,21.74
2023-03-19T03:59:59.660Z,21.74
2023-03-19T04:03:25.741Z,21.71
2023-03-19T04:06:19.178Z,21.67
2023-03-19T04:12:28.218Z,21.63
2023-03-19T04:15:04.309Z,21.60
2023-03-19T04:21:27.474Z,21.57
2023-03-19T04:23:57.833Z,21.54
2023-03-19T04:33:40.290Z,21.45
2023-03-19T04:36:10.614Z,21.39
2023-03-19T04:38:58.214Z,21.39
2023-03-19T04:42:05.952Z,21.37
2023-03-19T04:45:05.619Z,21.34
2023-03-19T04:48:47.550Z,21.32
2023-03-19T04:57:01.507Z,21.23
2023-03-19T05:06:33.092Z,21.15
2023-03-19T05:09:24.398Z,21.10
2023-03-19T05:18:53.970Z,21.06
2023-03-19T05:24:40.630Z,20.95
2023-03-19T05:27:10.504Z,20.91
2023-03-19T05:30:07.471Z,20.88
2023-03-19T05:32:52.618Z,20.87
2023-03-19T05:35:22.485Z,20.84
2023-03-19T05:37:52.562Z,20.81
2023-03-19T05:40:22.908Z,20.80
2023-03-19T05:45:44.482Z,20.79
2023-03-19T05:48:17.895Z,20.72
2023-03-19T05:57:42.547Z,20.69
2023-03-19T06:00:27.105Z,20.62
2023-03-19T06:03:05.813Z,20.59
2023-03-19T06:16:11.192Z,20.48
2023-03-19T06:18:51.700Z,20.49
2023-03-19T06:21:33.854Z,20.51
2023-03-19T06:24:19.210Z,20.48
2023-03-19T06:27:19.125Z,20.50
2023-03-19T06:36:28.871Z,20.39
2023-03-19T06:40:05.080Z,20.47
2023-03-19T06:43:34.573Z,20.48
2023-03-19T06:46:05.932Z,20.50
2023-03-19T06:49:18.993Z,20.48
2023-03-19T06:54:41.187Z,20.52
2023-03-19T06:57:24.225Z,20.55
2023-03-19T07:00:23.737Z,20.56
2023-03-19T07:03:07.640Z,20.57
2023-03-19T07:05:39.225Z,20.61
2023-03-19T07:08:11.687Z,20.61
2023-03-19T07:10:41.833Z,20.64
2023-03-19T07:13:11.871Z,20.62
2023-03-19T07:15:57.115Z,20.64
2023-03-19T07:19:03.125Z,20.65
2023-03-19T07:21:33.307Z,20.64
2023-03-19T07:24:38.886Z,20.63
2023-03-19T07:27:15.366Z,20.59
2023-03-19T07:29:46.405Z,20.58
2023-03-19T07:32:16.476Z,20.55
2023-03-19T07:34:46.494Z,20.52
2023-03-19T07:37:16.860Z,20.50
2023-03-19T07:39:48.065Z,20.48
2023-03-19T07:42:45.171Z,20.45
2023-03-19T07:45:41.815Z,20.43
2023-03-19T07:48:34.106Z,20.39
2023-03-19T07:58:09.989Z,20.32
2023-03-19T08:01:04.421Z,20.31
2023-03-19T08:03:33.975Z,20.31
2023-03-19T08:06:28.814Z,20.29
2023-03-19T08:12:03.481Z,20.30
2023-03-19T08:14:32.906Z,20.31
2023-03-19T08:17:02.765Z,20.30
2023-03-19T08:19:32.731Z,20.30
2023-03-19T08:22:05.405Z,20.32
2023-03-19T08:24:56.286Z,20.31
2023-03-19T08:34:25.515Z,20.41
2023-03-19T08:36:55.445Z,20.35
2023-03-19T08:39:57.675Z,20.36
2023-03-19T08:46:08.590Z,20.39
2023-03-19T08:48:41.277Z,20.37
2023-03-19T08:54:50.648Z,20.38
2023-03-19T08:58:06.899Z,20.41
2023-03-19T09:03:54.047Z,20.42
2023-03-19T09:10:31.698Z,20.41
2023-03-19T09:13:01.540Z,20.39
2023-03-19T09:19:36.084Z,20.39
2023-03-19T09:25:27.604Z,20.47
2023-03-19T09:28:50.674Z,20.41
2023-03-19T09:31:20.723Z,20.44
2023-03-19T09:34:14.564Z,20.43
2023-03-19T09:36:50.059Z,20.33
2023-03-19T09:43:14.031Z,20.45
2023-03-19T09:45:43.848Z,20.44
2023-03-19T09:48:28.625Z,20.44
2023-03-19T09:50:58.548Z,20.45
2023-03-19T09:53:42.220Z,20.46
2023-03-19T09:56:14.886Z,20.47
2023-03-19T09:58:44.814Z,20.46
2023-03-19T10:01:26.306Z,20.46
2023-03-19T10:04:10.833Z,20.47
2023-03-19T10:06:42.157Z,20.49
2023-03-19T10:09:40.049Z,20.50
2023-03-19T10:12:38.248Z,20.48
2023-03-19T10:15:40.307Z,20.47
2023-03-19T10:18:39.009Z,20.45
2023-03-19T10:21:18.386Z,20.45
2023-03-19T10:23:50.605Z,20.43
2023-03-19T10:26:22.296Z,20.41
2023-03-19T10:29:01.098Z,20.39
2023-03-19T10:31:53.074Z,20.36
2023-03-19T10:34:32.293Z,20.34
2023-03-19T10:37:10.375Z,20.29
2023-03-19T10:39:43.868Z,20.26
2023-03-19T10:45:44.506Z,20.24
2023-03-19T10:48:19.104Z,20.14
2023-03-19T10:50:53.962Z,20.14
2023-03-19T10:53:37.548Z,20.28
2023-03-19T10:56:09.254Z,20.29
2023-03-19T10:58:41.060Z,20.31
2023-03-19T11:01:12.885Z,20.33
2023-03-19T11:03:58.688Z,20.34
2023-03-19T11:06:50.212Z,20.34
2023-03-19T11:12:23.889Z,20.35
2023-03-19T11:14:54.257Z,20.34
2023-03-19T11:17:26.847Z,20.37
2023-03-19T11:20:00.355Z,20.40
2023-03-19T11:22:34.240Z,20.42
2023-03-19T11:25:19.607Z,20.43
2023-03-19T11:28:22.102Z,20.46
2023-03-19T11:31:20.004Z,20.48
2023-03-19T11:40:51.933Z,20.56
2023-03-19T11:43:37.563Z,20.58
2023-03-19T11:46:28.984Z,20.62
2023-03-19T11:49:13.974Z,20.66
2023-03-19T11:52:03.381Z,20.73
2023-03-19T11:54:55.238Z,20.77
2023-03-19T11:57:29.264Z,20.81
2023-03-19T12:00:14.711Z,20.85
2023-03-19T12:02:50.387Z,20.90
2023-03-19T12:05:33.964Z,20.94
2023-03-19T12:08:33.588Z,20.96
2023-03-19T12:11:26.181Z,20.98
2023-03-19T12:14:13.121Z,21.02
2023-03-19T12:17:02.753Z,21.05
2023-03-19T12:19:41.533Z,21.09
2023-03-19T12:22:28.860Z,21.14
2023-03-19T12:25:17.918Z,21.18
2023-03-19T12:27:59.647Z,21.21
2023-03-19T12:30:38.419Z,21.25
2023-03-19T12:33:14.425Z,21.29
2023-03-19T12:35:44.255Z,21.34
2023-03-19T12:38:16.972Z,21.38
2023-03-19T12:40:58.601Z,21.42
2023-03-19T12:43:31.274Z,21.45
2023-03-19T12:46:07.718Z,21.49
2023-03-19T12:49:02.329Z,21.54
2023-03-19T12:51:41.334Z,21.57
2023-03-19T12:54:17.343Z,21.62
2023-03-19T12:56:49.948Z,21.66
2023-03-19T12:59:34.379Z,21.69
2023-03-19T13:02:32.856Z,21.74
2023-03-19T13:05:25.910Z,21.78
2023-03-19T13:08:22.726Z,21.77
2023-03-19T13:10:52.487Z,21.85
2023-03-19T13:13:33.154Z,21.87
2023-03-19T13:16:19.671Z,21.89
2023-03-19T13:18:52.589Z,21.94
2023-03-19T13:21:26.915Z,21.96
2023-03-19T13:24:29.165Z,21.98
2023-03-19T13:27:00.077Z,22.01
2023-03-19T13:29:31.101Z,22.04
2023-03-19T13:32:30.715Z,22.06
2023-03-19T13:35:11.593Z,22.07
2023-03-19T13:37:43.698Z,22.08
2023-03-19T13:40:39.935Z,22.08
2023-03-19T13:43:32.548Z,22.12
2023-03-19T13:47:12.731Z,22.16
2023-03-19T13:49:36.688Z,22.18
2023-03-19T13:52:28.452Z,22.21
2023-03-19T13:55:37.769Z,22.23
2023-03-19T13:58:55.696Z,22.24
2023-03-19T14:01:39.323Z,22.26
2023-03-19T14:04:37.289Z,22.27
2023-03-19T14:07:39.951Z,22.30
2023-03-19T14:10:41.912Z,22.32
2023-03-19T14:14:04.864Z,22.35
2023-03-19T14:16:42.954Z,22.35
2023-03-19T14:19:34.775Z,22.37
2023-03-19T14:22:34.729Z,22.32
2023-03-19T14:25:34.870Z,22.39
2023-03-19T14:28:36.088Z,22.41
2023-03-19T14:34:20.629Z,22.43
2023-03-19T14:43:35.360Z,22.48
2023-03-19T14:46:34.354Z,22.50
2023-03-19T14:49:39.709Z,22.51
2023-03-19T14:52:43.630Z,22.51
2023-03-19T14:55:52.171Z,22.50
2023-03-19T15:01:53.643Z,22.56
2023-03-19T15:04:54.576Z,22.54
2023-03-19T15:08:08.300Z,22.52
2023-03-19T15:10:50.703Z,22.51
2023-03-19T15:13:46.114Z,22.48
2023-03-19T15:16:50.089Z,22.44
2023-03-19T15:19:28.366Z,22.44
2023-03-19T15:22:58.724Z,22.45
2023-03-19T15:26:09.728Z,22.46
2023-03-19T15:29:04.537Z,22.44
2023-03-19T15:31:52.848Z,22.42
2023-03-19T15:35:00.451Z,22.40
2023-03-19T15:38:07.664Z,22.34
2023-03-19T15:40:55.744Z,22.31
2023-03-19T15:43:55.712Z,22.35
2023-03-19T15:47:07.769Z,22.36
2023-03-19T15:49:59.754Z,22.35
2023-03-19T15:55:51.969Z,22.32
2023-03-19T15:58:54.816Z,22.29
2023-03-19T16:01:53.130Z,22.26
2023-03-19T16:05:03.605Z,22.29
2023-03-19T16:07:08.568Z,22.30
2023-03-19T16:09:39.452Z,22.31
2023-03-19T16:12:12.269Z,22.31
2023-03-19T16:14:44.342Z,22.32
2023-03-19T16:17:15.366Z,22.33
2023-03-19T16:19:56.776Z,22.34
2023-03-19T16:25:49.504Z,22.36
2023-03-19T16:28:47.908Z,22.37
2023-03-19T16:35:07.255Z,22.37
2023-03-19T16:38:06.047Z,22.37
2023-03-19T16:41:13.945Z,22.37
2023-03-19T16:43:55.569Z,22.34
2023-03-19T16:49:58.006Z,22.38
2023-03-19T16:56:08.110Z,22.35
2023-03-19T16:59:13.679Z,22.36
2023-03-19T17:02:25.412Z,22.32
2023-03-19T17:05:03.764Z,22.32
2023-03-19T17:08:12.640Z,22.31
2023-03-19T17:10:52.635Z,22.28
2023-03-19T17:13:50.039Z,22.26
2023-03-19T17:16:20.264Z,22.28
2023-03-19T17:18:50.605Z,22.31
2023-03-19T17:21:26.069Z,22.33
2023-03-19T17:23:56.206Z,22.33
2023-03-19T17:26:27.291Z,22.34
2023-03-19T17:28:57.860Z,22.36
2023-03-19T17:35:12.194Z,22.39
2023-03-19T17:41:28.914Z,22.42
2023-03-19T17:43:58.801Z,22.43
2023-03-19T17:46:29.207Z,22.42
2023-03-19T17:48:59.682Z,22.41
2023-03-19T17:54:19.404Z,22.41
2023-03-19T17:56:49.679Z,22.42
2023-03-19T18:02:04.281Z,22.47
2023-03-19T18:07:22.912Z,22.43
2023-03-19T18:09:52.978Z,22.44
2023-03-19T18:12:23.180Z,22.43
2023-03-19T18:14:53.240Z,22.47
2023-03-19T18:17:23.115Z,22.49
2023-03-19T18:23:40.851Z,22.54
2023-03-19T18:26:54.609Z,22.58
2023-03-19T18:29:24.550Z,22.61
2023-03-19T18:35:59.787Z,22.64
2023-03-19T18:38:29.691Z,22.66
2023-03-19T18:41:00.791Z,22.68
2023-03-19T18:43:31.367Z,22.69
2023-03-19T18:46:01.345Z,22.69
2023-03-19T18:48:32.745Z,22.70
2023-03-19T18:51:02.850Z,22.72
2023-03-19T18:53:32.787Z,22.73
2023-03-19T18:56:04.045Z,22.76
2023-03-19T18:58:34.338Z,22.77
2023-03-19T19:01:05.265Z,22.77
2023-03-19T19:03:35.224Z,22.79
2023-03-19T19:06:05.222Z,22.80
2023-03-19T19:08:35.167Z,22.81
2023-03-19T19:11:08.039Z,22.81
2023-03-19T19:13:55.066Z,22.82
2023-03-19T19:16:14.827Z,22.83
2023-03-19T19:18:44.918Z,22.82
2023-03-19T19:21:14.994Z,22.82
2023-03-19T19:23:45.089Z,22.83
2023-03-19T19:26:26.606Z,22.83
2023-03-19T19:29:07.242Z,22.83
2023-03-19T19:31:38.098Z,22.85
2023-03-19T19:34:09.545Z,22.82
2023-03-19T19:36:58.364Z,22.83
2023-03-19T19:39:28.630Z,22.86
2023-03-19T19:41:58.736Z,22.86
2023-03-19T19:44:36.026Z,22.86
2023-03-19T19:47:35.879Z,22.87
2023-03-19T19:50:42.374Z,22.87
2023-03-19T19:53:13.213Z,22.87
2023-03-19T19:55:43.431Z,22.85
2023-03-19T19:58:27.803Z,22.86
2023-03-19T20:01:03.880Z,22.86
2023-03-19T20:03:32.085Z,22.86
2023-03-19T20:06:02.682Z,22.87
2023-03-19T20:12:06.952Z,22.91
2023-03-19T20:14:46.158Z,22.87
2023-03-19T20:18:01.124Z,22.88
2023-03-19T20:21:00.075Z,22.88
2023-03-19T20:23:48.581Z,22.89
2023-03-19T20:26:55.607Z,22.89
2023-03-19T20:29:33.368Z,22.88
2023-03-19T20:32:45.060Z,22.89
2023-03-19T20:35:37.824Z,22.88
2023-03-19T20:38:41.941Z,22.89
2023-03-19T20:41:37.127Z,22.90
2023-03-19T20:44:53.507Z,22.91
2023-03-19T20:50:44.435Z,22.98
2023-03-19T20:53:41.086Z,22.91
2023-03-19T20:56:52.716Z,22.94
2023-03-19T20:59:37.481Z,22.95
2023-03-19T21:02:44.621Z,22.97
2023-03-19T21:05:22.508Z,22.94
2023-03-19T21:07:53.233Z,22.97
2023-03-19T21:10:34.785Z,23.00
2023-03-19T21:13:04.955Z,22.99
2023-03-19T21:15:36.932Z,23.01
2023-03-19T21:18:09.388Z,23.01
2023-03-19T21:20:43.312Z,23.05
2023-03-19T21:23:36.174Z,23.08
2023-03-19T21:26:31.704Z,23.09
2023-03-19T21:29:03.612Z,23.10
2023-03-19T21:31:34.365Z,23.11
2023-03-19T21:34:04.361Z,23.11
2023-03-19T21:36:34.410Z,23.13
2023-03-19T21:39:04.756Z,23.15
2023-03-19T21:41:41.120Z,23.17
2023-03-19T21:44:28.483Z,23.18
2023-03-19T21:46:51.219Z,23.18
2023-03-19T21:49:21.221Z,23.20
2023-03-19T21:51:51.468Z,23.21
2023-03-19T21:54:21.356Z,23.22
2023-03-19T21:56:51.742Z,23.23
2023-03-19T21:59:41.212Z,23.25
2023-03-19T22:05:41.036Z,23.27
2023-03-19T22:08:13.148Z,23.21
2023-03-19T22:10:43.256Z,23.30
2023-03-19T22:13:25.100Z,23.32
2023-03-19T22:15:56.465Z,23.34
2023-03-19T22:18:33.061Z,23.35
2023-03-19T22:24:01.241Z,23.37
2023-03-19T22:26:42.936Z,23.39
2023-03-19T22:29:24.852Z,23.41
2023-03-19T22:31:55.162Z,23.42
2023-03-19T22:34:28.331Z,23.44
2023-03-19T22:36:58.538Z,23.46
2023-03-19T22:39:28.615Z,23.48
2023-03-19T22:41:58.523Z,23.49
2023-03-19T22:44:48.708Z,23.51
2023-03-19T22:47:24.121Z,23.52
2023-03-19T22:49:54.785Z,23.55
2023-03-19T22:52:24.822Z,23.57
2023-03-19T22:54:54.744Z,23.58
2023-03-19T22:57:29.188Z,23.60
2023-03-19T22:59:59.085Z,23.62
2023-03-19T23:05:22.812Z,23.64
2023-03-19T23:07:53.151Z,23.67
2023-03-19T23:10:23.509Z,23.68
2023-03-19T23:12:53.722Z,23.68
2023-03-19T23:15:23.781Z,23.70
2023-03-19T23:17:57.229Z,23.72
2023-03-19T23:20:26.859Z,23.74
2023-03-19T23:22:57.115Z,23.76
2023-03-19T23:25:28.507Z,23.78
2023-03-19T23:28:02.961Z,23.79
2023-03-19T23:30:34.157Z,23.80
2023-03-19T23:33:26.058Z,23.81
2023-03-19T23:36:00.378Z,23.82
2023-03-19T23:38:29.430Z,23.84
2023-03-19T23:40:59.461Z,23.84
2023-03-19T23:43:29.623Z,23.86
2023-03-19T23:45:59.828Z,23.86
2023-03-19T23:48:36.830Z,23.87
2023-03-19T23:51:08.705Z,23.87
2023-03-19T23:56:23.259Z,23.86
2023-03-19T23:58:53.610Z,23.87
